KLGB/LGB METAR and TAF weather

Enter ICAO airport designator
Station Type Date Time Source
KLGB METAR 2020/04/04 04:53 UTC NOAA

KLGB 040453Z AUTO 00000KT 10SM CLR 15/08 A2993 RMK AO2 SLP135 T01500083


Station Type Date Time Source
KLGB Decoded METAR 2020/04/04 04:53 UTC NOAA

LONG BEACH AIRPORT, CA, United States (KLGB) 33-49N 118-09W 10M
Apr 04, 2020 - 12:53 AM EDT / 2020.04.04 0453 UTC
Wind: Calm:0
Visibility: 10 mile(s):0
Sky conditions: clear
Temperature: 59.0 F (15.0 C)
Dew Point: 46.9 F (8.3 C)
Relative Humidity: 64%
Pressure (altimeter): 29.93 in. Hg (1013 hPa)
ob: KLGB 040453Z AUTO 00000KT 10SM CLR 15/08 A2993 RMK AO2 SLP135 T01500083
cycle: 5

Station Type Date Time Source
KLGB TAF 2020/04/03 18:57 UTC NOAA

TAF KLGB 031754Z 0318/0418 VRB03KT P6SM SCT020
FM031900 25010KT P6SM SKC
FM040500 12006KT P6SM BKN010
FM041000 14008KT P6SM OVC020

Example: see airport list